createdAt,value
2022-08-14T00:00:16.000Z,1006.94604
2022-08-14T00:00:46.000Z,1006.7428560000001
2022-08-14T00:01:19.000Z,1006.7428560000001
2022-08-14T00:01:44.000Z,1006.539672
2022-08-14T00:02:06.000Z,1006.539672
2022-08-14T00:02:41.000Z,1006.539672
2022-08-14T00:03:11.000Z,1006.7428560000001
2022-08-14T00:03:41.000Z,1006.7428560000001
2022-08-14T00:04:01.000Z,1006.8444479999999
2022-08-14T00:04:31.000Z,1006.8444479999999
2022-08-14T00:05:01.000Z,1006.7428560000001
2022-08-14T00:05:36.000Z,1006.7428560000001
2022-08-14T00:05:52.000Z,1006.7428560000001
2022-08-14T00:06:26.000Z,1006.7428560000001
2022-08-14T00:06:49.000Z,1006.641264
2022-08-14T00:07:11.000Z,1006.641264
2022-08-14T00:07:41.000Z,1006.641264
2022-08-14T00:08:16.000Z,1006.641264
2022-08-14T00:08:46.000Z,1006.641264
2022-08-14T00:09:19.000Z,1006.641264
2022-08-14T00:09:45.000Z,1006.641264
2022-08-14T00:10:15.000Z,1006.641264
2022-08-14T00:10:41.000Z,1006.641264
2022-08-14T00:11:11.000Z,1006.8444479999999
2022-08-14T00:11:41.000Z,1006.8444479999999
2022-08-14T00:12:16.000Z,1006.8444479999999
2022-08-14T00:12:46.000Z,1006.7428560000001
2022-08-14T00:13:19.000Z,1006.7428560000001
2022-08-14T00:13:44.000Z,1006.641264
2022-08-14T00:14:04.000Z,1006.641264
2022-08-14T00:14:36.000Z,1006.641264
2022-08-14T00:14:56.000Z,1006.7428560000001
2022-08-14T00:15:24.000Z,1006.7428560000001
2022-08-14T00:15:51.000Z,1006.539672
2022-08-14T00:16:15.000Z,1006.539672
2022-08-14T00:16:56.000Z,1006.641264
2022-08-14T00:16:56.000Z,1006.641264
2022-08-14T00:17:21.000Z,1006.641264
2022-08-14T00:17:21.000Z,1006.641264
2022-08-14T00:17:46.000Z,1006.539672
2022-08-14T00:17:46.000Z,1006.539672
2022-08-14T00:18:08.000Z,1006.539672
2022-08-14T00:18:08.000Z,1006.539672
2022-08-14T00:18:36.000Z,1006.539672
2022-08-14T00:18:36.000Z,1006.539672
2022-08-14T00:18:52.000Z,1006.539672
2022-08-14T00:19:36.000Z,1006.539672
2022-08-14T00:20:02.000Z,1006.641264
2022-08-14T00:20:28.000Z,1006.641264
2022-08-14T00:20:56.000Z,1006.43808
2022-08-14T00:21:21.000Z,1006.43808
2022-08-14T00:21:44.000Z,1006.336488
2022-08-14T00:22:06.000Z,1006.336488
2022-08-14T00:22:41.000Z,1006.336488
2022-08-14T00:23:11.000Z,1006.641264
2022-08-14T00:23:41.000Z,1006.641264
2022-08-14T00:24:16.000Z,1006.641264
2022-08-14T00:24:46.000Z,1006.539672
2022-08-14T00:25:19.000Z,1006.539672
2022-08-14T00:25:44.000Z,1006.539672
2022-08-14T00:26:06.000Z,1006.539672
2022-08-14T00:26:41.000Z,1006.539672
2022-08-14T00:27:11.000Z,1006.336488
2022-08-14T00:27:51.000Z,1006.7428560000001
2022-08-14T00:28:16.000Z,1006.7428560000001
2022-08-14T00:28:46.000Z,1006.336488
2022-08-14T00:29:19.000Z,1006.336488
2022-08-14T00:29:44.000Z,1006.43808
2022-08-14T00:30:06.000Z,1006.43808
2022-08-14T00:30:41.000Z,1006.43808
2022-08-14T00:31:11.000Z,1006.43808
2022-08-14T00:31:42.000Z,1006.43808
2022-08-14T00:32:16.000Z,1006.43808
2022-08-14T00:32:46.000Z,1006.336488
2022-08-14T00:33:19.000Z,1006.336488
2022-08-14T00:33:44.000Z,1006.539672
2022-08-14T00:34:36.000Z,1006.539672
2022-08-14T00:34:36.000Z,1006.539672
2022-08-14T00:35:02.000Z,1006.2348959999999
2022-08-14T00:35:02.000Z,1006.2348959999999
2022-08-14T00:35:26.000Z,1006.2348959999999
2022-08-14T00:35:26.000Z,1006.2348959999999
2022-08-14T00:35:44.000Z,1006.2348959999999
2022-08-14T00:35:44.000Z,1006.2348959999999
2022-08-14T00:36:16.000Z,1006.2348959999999
2022-08-14T00:36:16.000Z,1006.2348959999999
2022-08-14T00:36:46.000Z,1006.641264
2022-08-14T00:37:19.000Z,1006.641264
2022-08-14T00:37:44.000Z,1006.336488
2022-08-14T00:38:06.000Z,1006.336488
2022-08-14T00:38:41.000Z,1006.336488
2022-08-14T00:39:11.000Z,1006.133304
2022-08-14T00:39:41.000Z,1006.133304
2022-08-14T00:40:01.000Z,1006.43808
2022-08-14T00:40:31.000Z,1006.43808
2022-08-14T00:41:00.000Z,1006.133304
2022-08-14T00:41:19.000Z,1006.133304
2022-08-14T00:41:44.000Z,1006.2348959999999
2022-08-14T00:42:06.000Z,1006.2348959999999
2022-08-14T00:42:41.000Z,1006.2348959999999
2022-08-14T00:43:11.000Z,1006.43808
2022-08-14T00:43:41.000Z,1006.43808
2022-08-14T00:44:16.000Z,1006.2348959999999
2022-08-14T00:44:46.000Z,1006.336488
2022-08-14T00:45:19.000Z,1006.336488
2022-08-14T00:45:44.000Z,1006.336488
2022-08-14T00:46:06.000Z,1006.336488
2022-08-14T00:46:41.000Z,1006.336488
2022-08-14T00:47:11.000Z,1006.2348959999999
2022-08-14T00:47:46.000Z,1006.2348959999999
2022-08-14T00:48:25.000Z,1006.336488
2022-08-14T00:48:55.000Z,1006.336488
2022-08-14T00:49:21.000Z,1006.336488
2022-08-14T00:49:44.000Z,1006.2348959999999
2022-08-14T00:50:06.000Z,1006.2348959999999
2022-08-14T00:50:41.000Z,1006.2348959999999
2022-08-14T00:51:11.000Z,1006.336488
2022-08-14T00:51:41.000Z,1006.336488
2022-08-14T00:52:01.000Z,1006.336488
2022-08-14T00:52:31.000Z,1006.336488
2022-08-14T00:53:01.000Z,1006.133304
2022-08-14T00:53:20.000Z,1006.133304
2022-08-14T00:53:44.000Z,1006.133304
2022-08-14T00:54:06.000Z,1006.133304
2022-08-14T00:54:41.000Z,1006.133304
2022-08-14T00:55:11.000Z,1006.2348959999999
2022-08-14T00:55:42.000Z,1006.2348959999999
2022-08-14T00:56:12.000Z,1006.133304
2022-08-14T00:56:28.000Z,1006.133304
2022-08-14T00:57:01.000Z,1006.43808
2022-08-14T00:57:19.000Z,1006.43808
2022-08-14T00:57:44.000Z,1006.2348959999999
2022-08-14T00:58:06.000Z,1006.2348959999999
2022-08-14T00:58:41.000Z,1006.2348959999999
2022-08-14T00:59:11.000Z,1006.133304
2022-08-14T00:59:41.000Z,1006.133304
2022-08-14T01:00:01.000Z,1006.336488
2022-08-14T01:00:31.000Z,1006.336488
2022-08-14T01:01:01.000Z,1006.336488
2022-08-14T01:01:19.000Z,1006.336488
2022-08-14T01:01:44.000Z,1006.43808
2022-08-14T01:02:06.000Z,1006.43808
2022-08-14T01:02:50.000Z,1006.133304
2022-08-14T01:03:13.000Z,1006.133304
2022-08-14T01:03:41.000Z,1006.133304
2022-08-14T01:04:10.000Z,1006.133304
2022-08-14T01:04:35.000Z,1006.133304
2022-08-14T01:05:06.000Z,1006.2348959999999
2022-08-14T01:05:36.000Z,1006.2348959999999
2022-08-14T01:06:06.000Z,1006.2348959999999
2022-08-14T01:06:41.000Z,1006.2348959999999
2022-08-14T01:07:11.000Z,1006.2348959999999
2022-08-14T01:07:41.000Z,1006.2348959999999
2022-08-14T01:08:01.000Z,1006.2348959999999
2022-08-14T01:08:31.000Z,1006.2348959999999
2022-08-14T01:09:01.000Z,1005.93012
2022-08-14T01:09:19.000Z,1005.93012
2022-08-14T01:09:44.000Z,1006.031712
2022-08-14T01:10:06.000Z,1006.031712
2022-08-14T01:10:41.000Z,1006.031712
2022-08-14T01:11:20.000Z,1006.2348959999999
2022-08-14T01:11:50.000Z,1006.2348959999999
2022-08-14T01:12:29.000Z,1006.2348959999999
2022-08-14T01:13:01.000Z,1006.031712
2022-08-14T01:13:19.000Z,1006.031712
2022-08-14T01:13:44.000Z,1006.133304
2022-08-14T01:14:06.000Z,1006.133304
2022-08-14T01:14:41.000Z,1006.133304
2022-08-14T01:15:12.000Z,1006.133304
2022-08-14T01:15:41.000Z,1006.133304
2022-08-14T01:16:01.000Z,1006.2348959999999
2022-08-14T01:16:31.000Z,1006.2348959999999
2022-08-14T01:17:01.000Z,1006.031712
2022-08-14T01:17:36.000Z,1006.031712
2022-08-14T01:18:06.000Z,1005.93012
2022-08-14T01:18:41.000Z,1005.93012
2022-08-14T01:19:20.000Z,1006.133304
2022-08-14T01:19:41.000Z,1006.133304
2022-08-14T01:20:16.000Z,1006.031712
2022-08-14T01:20:46.000Z,1006.031712
2022-08-14T01:21:19.000Z,1006.031712
2022-08-14T01:21:44.000Z,1006.031712
2022-08-14T01:22:26.000Z,1006.031712
2022-08-14T01:22:47.000Z,1005.93012
2022-08-14T01:23:11.000Z,1005.93012
2022-08-14T01:23:41.000Z,1005.93012
2022-08-14T01:24:16.000Z,1005.828528
2022-08-14T01:25:01.000Z,1005.828528
2022-08-14T01:25:36.000Z,1005.828528
2022-08-14T01:25:52.000Z,1005.93012
2022-08-14T01:26:26.000Z,1005.93012
2022-08-14T01:26:48.000Z,1006.031712
2022-08-14T01:27:08.000Z,1006.031712
2022-08-14T01:27:35.000Z,1006.031712
2022-08-14T01:28:03.000Z,1005.93012
2022-08-14T01:28:28.000Z,1005.93012
2022-08-14T01:28:55.000Z,1005.93012
2022-08-14T01:29:22.000Z,1005.93012
2022-08-14T01:29:45.000Z,1005.93012
2022-08-14T01:30:08.000Z,1005.93012
2022-08-14T01:30:36.000Z,1005.93012
2022-08-14T01:31:02.000Z,1005.93012
2022-08-14T01:31:35.000Z,1005.93012
2022-08-14T01:32:02.000Z,1005.93012
2022-08-14T01:32:28.000Z,1005.93012
2022-08-14T01:32:55.000Z,1005.93012
2022-08-14T01:33:19.000Z,1005.93012
2022-08-14T01:33:44.000Z,1005.93012
2022-08-14T01:34:06.000Z,1005.93012
2022-08-14T01:34:41.000Z,1005.93012
2022-08-14T01:35:11.000Z,1005.828528
2022-08-14T01:35:42.000Z,1005.828528
2022-08-14T01:36:16.000Z,1005.828528
2022-08-14T01:36:46.000Z,1006.031712
2022-08-14T01:37:19.000Z,1006.031712
2022-08-14T01:37:44.000Z,1005.93012
2022-08-14T01:38:06.000Z,1005.93012
2022-08-14T01:38:41.000Z,1005.93012
2022-08-14T01:39:11.000Z,1005.828528
2022-08-14T01:39:50.000Z,1005.93012
2022-08-14T01:40:15.000Z,1005.93012
2022-08-14T01:40:44.000Z,1005.7269360000001
2022-08-14T01:41:06.000Z,1005.7269360000001
2022-08-14T01:41:36.000Z,1005.7269360000001
2022-08-14T01:42:06.000Z,1005.7269360000001
2022-08-14T01:42:41.000Z,1005.7269360000001
2022-08-14T01:43:11.000Z,1005.828528
2022-08-14T01:43:41.000Z,1005.828528
2022-08-14T01:44:16.000Z,1005.7269360000001
2022-08-14T01:44:46.000Z,1005.625344
2022-08-14T01:45:19.000Z,1005.625344
2022-08-14T01:45:44.000Z,1005.7269360000001
2022-08-14T01:46:26.000Z,1005.7269360000001
2022-08-14T01:46:48.000Z,1005.828528
2022-08-14T01:47:11.000Z,1005.828528
2022-08-14T01:47:46.000Z,1005.828528
2022-08-14T01:48:16.000Z,1005.625344
2022-08-14T01:48:46.000Z,1005.7269360000001
2022-08-14T01:49:19.000Z,1005.7269360000001
2022-08-14T01:49:44.000Z,1005.5237520000001
2022-08-14T01:50:06.000Z,1005.5237520000001
2022-08-14T01:50:41.000Z,1005.5237520000001
2022-08-14T01:51:11.000Z,1005.828528
2022-08-14T01:51:41.000Z,1005.828528
2022-08-14T01:52:16.000Z,1005.7269360000001
2022-08-14T01:52:46.000Z,1005.5237520000001
2022-08-14T01:53:19.000Z,1005.5237520000001
2022-08-14T01:53:44.000Z,1005.4221600000001
2022-08-14T01:54:04.000Z,1005.4221600000001
2022-08-14T01:54:29.000Z,1005.4221600000001
2022-08-14T01:54:55.000Z,1005.7269360000001
2022-08-14T01:55:26.000Z,1005.7269360000001
2022-08-14T01:55:46.000Z,1005.625344
2022-08-14T01:55:46.000Z,1005.625344
2022-08-14T01:56:16.000Z,1005.625344
2022-08-14T01:56:16.000Z,1005.625344
2022-08-14T01:56:46.000Z,1005.625344
2022-08-14T01:56:46.000Z,1005.625344
2022-08-14T01:57:19.000Z,1005.625344
2022-08-14T01:57:19.000Z,1005.625344
2022-08-14T01:57:44.000Z,1005.625344
2022-08-14T01:57:44.000Z,1005.625344
2022-08-14T01:58:04.000Z,1005.625344
2022-08-14T01:58:41.000Z,1005.625344
2022-08-14T01:59:11.000Z,1005.625344
2022-08-14T01:59:41.000Z,1005.625344
2022-08-14T02:00:16.000Z,1005.5237520000001
2022-08-14T02:00:46.000Z,1005.4221600000001
2022-08-14T02:01:19.000Z,1005.4221600000001
2022-08-14T02:01:44.000Z,1005.625344
2022-08-14T02:02:06.000Z,1005.625344
2022-08-14T02:02:41.000Z,1005.625344
2022-08-14T02:03:11.000Z,1005.3205680000001
2022-08-14T02:03:41.000Z,1005.3205680000001
2022-08-14T02:04:01.000Z,1005.3205680000001
2022-08-14T02:04:31.000Z,1005.3205680000001
2022-08-14T02:05:01.000Z,1005.3205680000001
2022-08-14T02:05:19.000Z,1005.3205680000001
2022-08-14T02:05:44.000Z,1005.625344
2022-08-14T02:06:06.000Z,1005.625344
2022-08-14T02:06:41.000Z,1005.625344
2022-08-14T02:07:11.000Z,1005.4221600000001
2022-08-14T02:07:41.000Z,1005.4221600000001
2022-08-14T02:08:12.000Z,1005.4221600000001
2022-08-14T02:08:31.000Z,1005.4221600000001
2022-08-14T02:09:01.000Z,1005.1173840000001
2022-08-14T02:09:19.000Z,1005.1173840000001
2022-08-14T02:09:44.000Z,1005.218976
2022-08-14T02:10:20.000Z,1005.218976
2022-08-14T02:10:41.000Z,1005.218976
2022-08-14T02:11:11.000Z,1005.3205680000001
2022-08-14T02:11:41.000Z,1005.3205680000001
2022-08-14T02:12:01.000Z,1005.5237520000001
2022-08-14T02:12:31.000Z,1005.5237520000001
2022-08-14T02:13:01.000Z,1005.4221600000001
2022-08-14T02:13:19.000Z,1005.4221600000001
2022-08-14T02:13:45.000Z,1005.4221600000001
2022-08-14T02:14:06.000Z,1005.4221600000001
2022-08-14T02:14:41.000Z,1005.4221600000001
2022-08-14T02:15:11.000Z,1005.3205680000001
2022-08-14T02:15:41.000Z,1005.3205680000001
2022-08-14T02:16:01.000Z,1005.5237520000001
2022-08-14T02:16:31.000Z,1005.5237520000001
2022-08-14T02:17:00.000Z,1005.5237520000001
2022-08-14T02:17:19.000Z,1005.5237520000001
2022-08-14T02:17:51.000Z,1005.3205680000001
2022-08-14T02:18:20.000Z,1005.3205680000001
2022-08-14T02:18:41.000Z,1005.3205680000001
2022-08-14T02:19:11.000Z,1005.3205680000001
2022-08-14T02:19:41.000Z,1005.3205680000001
2022-08-14T02:20:00.000Z,1005.4221600000001
2022-08-14T02:20:28.000Z,1005.4221600000001
2022-08-14T02:21:01.000Z,1005.3205680000001
2022-08-14T02:21:36.000Z,1005.3205680000001
2022-08-14T02:22:06.000Z,1005.3205680000001
2022-08-14T02:22:41.000Z,1005.3205680000001
2022-08-14T02:23:11.000Z,1005.218976
2022-08-14T02:23:41.000Z,1005.218976
2022-08-14T02:24:16.000Z,1005.3205680000001
2022-08-14T02:24:46.000Z,1005.3205680000001
2022-08-14T02:25:19.000Z,1005.3205680000001
2022-08-14T02:25:44.000Z,1005.218976
2022-08-14T02:26:06.000Z,1005.218976
2022-08-14T02:26:42.000Z,1005.218976
2022-08-14T02:27:08.000Z,1005.218976
2022-08-14T02:27:35.000Z,1005.218976
2022-08-14T02:28:02.000Z,1005.218976
2022-08-14T02:28:28.000Z,1005.218976
2022-08-14T02:29:15.000Z,1005.3205680000001
2022-08-14T02:29:36.000Z,1005.3205680000001
2022-08-14T02:30:06.000Z,1005.015792
2022-08-14T02:30:41.000Z,1005.015792
2022-08-14T02:31:11.000Z,1005.218976
2022-08-14T02:31:41.000Z,1005.218976
2022-08-14T02:32:01.000Z,1005.3205680000001
2022-08-14T02:32:31.000Z,1005.3205680000001
2022-08-14T02:33:01.000Z,1005.1173840000001
2022-08-14T02:33:19.000Z,1005.1173840000001
2022-08-14T02:33:44.000Z,1005.218976
2022-08-14T02:34:06.000Z,1005.218976
2022-08-14T02:34:41.000Z,1005.218976
2022-08-14T02:35:11.000Z,1005.218976
2022-08-14T02:35:42.000Z,1005.218976
2022-08-14T02:36:12.000Z,1005.218976
2022-08-14T02:36:35.000Z,1005.218976
2022-08-14T02:37:00.000Z,1005.015792
2022-08-14T02:37:36.000Z,1005.015792
2022-08-14T02:37:52.000Z,1005.1173840000001
2022-08-14T02:38:20.000Z,1005.1173840000001
2022-08-14T02:38:50.000Z,1004.9142
2022-08-14T02:39:11.000Z,1004.9142
2022-08-14T02:39:41.000Z,1004.9142
2022-08-14T02:40:17.000Z,1005.015792
2022-08-14T02:40:46.000Z,1004.9142
2022-08-14T02:41:19.000Z,1004.9142
2022-08-14T02:41:44.000Z,1004.9142
2022-08-14T02:42:07.000Z,1004.9142
2022-08-14T02:42:41.000Z,1004.9142
2022-08-14T02:43:26.000Z,1004.846472
2022-08-14T02:43:44.000Z,1004.9142
2022-08-14T02:44:16.000Z,1004.9142
2022-08-14T02:44:46.000Z,1005.015792
2022-08-14T02:45:19.000Z,1005.015792
2022-08-14T02:45:44.000Z,1005.015792
2022-08-14T02:46:04.000Z,1005.015792
2022-08-14T02:46:29.000Z,1005.015792
2022-08-14T02:46:55.000Z,1004.9142
2022-08-14T02:47:24.000Z,1004.9142
2022-08-14T02:47:50.000Z,1005.015792
2022-08-14T02:48:15.000Z,1005.015792
2022-08-14T02:48:44.000Z,1004.846472
2022-08-14T02:49:15.000Z,1004.846472
2022-08-14T02:49:45.000Z,1004.9142
2022-08-14T02:50:20.000Z,1004.9142
2022-08-14T02:50:20.000Z,1004.9142
2022-08-14T02:50:41.000Z,1004.9142
2022-08-14T02:50:41.000Z,1004.9142
2022-08-14T02:51:11.000Z,1004.74488
2022-08-14T02:51:11.000Z,1004.74488
2022-08-14T02:51:41.000Z,1004.74488
2022-08-14T02:51:41.000Z,1004.74488
2022-08-14T02:52:16.000Z,1004.846472
2022-08-14T02:52:16.000Z,1004.846472
2022-08-14T02:52:46.000Z,1004.846472
2022-08-14T02:53:19.000Z,1004.846472
2022-08-14T02:53:44.000Z,1004.9142
2022-08-14T02:54:06.000Z,1004.9142
2022-08-14T02:54:41.000Z,1004.9142
2022-08-14T02:55:11.000Z,1004.846472
2022-08-14T02:55:41.000Z,1004.846472
2022-08-14T02:56:16.000Z,1004.846472
2022-08-14T02:56:44.000Z,1004.74488
2022-08-14T02:57:06.000Z,1004.74488
2022-08-14T02:57:36.000Z,1004.74488
2022-08-14T02:58:06.000Z,1005.015792
2022-08-14T02:58:41.000Z,1005.015792
2022-08-14T02:59:11.000Z,1005.015792
2022-08-14T02:59:41.000Z,1005.015792
2022-08-14T03:00:16.000Z,1004.9142
2022-08-14T03:00:46.000Z,1004.74488
2022-08-14T03:01:19.000Z,1004.74488
2022-08-14T03:01:44.000Z,1004.846472
2022-08-14T03:02:06.000Z,1004.846472
2022-08-14T03:02:41.000Z,1004.846472
2022-08-14T03:03:20.000Z,1004.9142
2022-08-14T03:03:50.000Z,1004.846472
2022-08-14T03:04:15.000Z,1004.846472
2022-08-14T03:04:44.000Z,1004.74488
2022-08-14T03:05:15.000Z,1004.74488
2022-08-14T03:05:32.000Z,1004.74488
2022-08-14T03:05:51.000Z,1004.846472
2022-08-14T03:06:26.000Z,1004.846472
2022-08-14T03:06:47.000Z,1004.846472
2022-08-14T03:07:11.000Z,1004.846472
2022-08-14T03:07:41.000Z,1004.846472
2022-08-14T03:07:41.000Z,1004.846472
2022-08-14T03:08:16.000Z,1004.6432880000001
2022-08-14T03:08:16.000Z,1004.6432880000001
2022-08-14T03:08:46.000Z,1004.9142
2022-08-14T03:08:46.000Z,1004.9142
2022-08-14T03:09:19.000Z,1004.9142
2022-08-14T03:09:19.000Z,1004.9142
2022-08-14T03:09:44.000Z,1004.9142
2022-08-14T03:09:44.000Z,1004.9142
2022-08-14T03:10:04.000Z,1004.9142
2022-08-14T03:10:41.000Z,1004.9142
2022-08-14T03:11:08.000Z,1004.9142
2022-08-14T03:11:26.000Z,1004.9142
2022-08-14T03:11:44.000Z,1004.846472
2022-08-14T03:12:12.000Z,1004.846472
2022-08-14T03:12:45.000Z,1004.541696
2022-08-14T03:13:20.000Z,1004.541696
2022-08-14T03:13:45.000Z,1004.74488
2022-08-14T03:14:08.000Z,1004.74488
2022-08-14T03:14:36.000Z,1004.74488
2022-08-14T03:15:02.000Z,1004.9142
2022-08-14T03:15:27.000Z,1004.9142
2022-08-14T03:15:50.000Z,1004.6432880000001
2022-08-14T03:16:15.000Z,1004.6432880000001
2022-08-14T03:16:44.000Z,1004.74488
2022-08-14T03:17:20.000Z,1004.74488
2022-08-14T03:17:45.000Z,1004.74488
2022-08-14T03:18:08.000Z,1004.74488
2022-08-14T03:18:36.000Z,1004.74488
2022-08-14T03:19:02.000Z,1004.6432880000001
2022-08-14T03:19:27.000Z,1004.6432880000001
2022-08-14T03:19:44.000Z,1004.846472
2022-08-14T03:20:16.000Z,1004.846472
2022-08-14T03:20:46.000Z,1004.74488
2022-08-14T03:21:20.000Z,1004.74488
2022-08-14T03:21:44.000Z,1004.74488
2022-08-14T03:22:06.000Z,1004.74488
2022-08-14T03:22:41.000Z,1004.74488
2022-08-14T03:23:11.000Z,1004.6432880000001
2022-08-14T03:23:41.000Z,1004.6432880000001
2022-08-14T03:24:16.000Z,1004.846472
2022-08-14T03:24:46.000Z,1004.541696
2022-08-14T03:25:19.000Z,1004.541696
2022-08-14T03:25:44.000Z,1004.9142
2022-08-14T03:26:06.000Z,1004.9142
2022-08-14T03:26:41.000Z,1004.9142
2022-08-14T03:27:11.000Z,1004.846472
2022-08-14T03:27:41.000Z,1004.846472
2022-08-14T03:28:01.000Z,1004.846472
2022-08-14T03:28:31.000Z,1004.846472
2022-08-14T03:29:01.000Z,1004.74488
2022-08-14T03:29:19.000Z,1004.74488
2022-08-14T03:29:44.000Z,1004.74488
2022-08-14T03:30:06.000Z,1004.74488
2022-08-14T03:30:41.000Z,1004.74488
2022-08-14T03:31:11.000Z,1004.6432880000001
2022-08-14T03:31:50.000Z,1004.74488
2022-08-14T03:32:15.000Z,1004.74488
2022-08-14T03:32:44.000Z,1004.6432880000001
2022-08-14T03:33:15.000Z,1004.6432880000001
2022-08-14T03:33:32.000Z,1004.6432880000001
2022-08-14T03:33:51.000Z,1004.74488
2022-08-14T03:34:26.000Z,1004.74488
2022-08-14T03:34:49.000Z,1004.541696
2022-08-14T03:35:08.000Z,1004.541696
2022-08-14T03:35:41.000Z,1004.541696
2022-08-14T03:35:41.000Z,1004.541696
2022-08-14T03:35:41.000Z,1004.541696
2022-08-14T03:35:41.000Z,1004.541696
2022-08-14T03:35:41.000Z,1004.541696
2022-08-14T03:36:16.000Z,1004.846472
2022-08-14T03:36:16.000Z,1004.846472
2022-08-14T03:36:16.000Z,1004.846472
2022-08-14T03:36:16.000Z,1004.846472
2022-08-14T03:36:16.000Z,1004.846472
2022-08-14T03:36:46.000Z,1004.6432880000001
2022-08-14T03:36:46.000Z,1004.6432880000001
2022-08-14T03:36:46.000Z,1004.6432880000001
2022-08-14T03:36:46.000Z,1004.6432880000001
2022-08-14T03:36:46.000Z,1004.6432880000001
2022-08-14T03:37:19.000Z,1004.6432880000001
2022-08-14T03:37:19.000Z,1004.6432880000001
2022-08-14T03:37:19.000Z,1004.6432880000001
2022-08-14T03:37:19.000Z,1004.6432880000001
2022-08-14T03:37:19.000Z,1004.6432880000001
2022-08-14T03:37:44.000Z,1004.541696
2022-08-14T03:37:44.000Z,1004.541696
2022-08-14T03:37:44.000Z,1004.541696
2022-08-14T03:37:44.000Z,1004.541696
2022-08-14T03:37:44.000Z,1004.541696
2022-08-14T03:38:04.000Z,1004.541696
2022-08-14T03:38:04.000Z,1004.541696
2022-08-14T03:38:04.000Z,1004.541696
2022-08-14T03:38:04.000Z,1004.541696
2022-08-14T03:38:20.000Z,1004.541696
2022-08-14T03:38:20.000Z,1004.541696
2022-08-14T03:38:20.000Z,1004.541696
2022-08-14T03:38:46.000Z,1004.846472
2022-08-14T03:38:46.000Z,1004.846472
2022-08-14T03:39:11.000Z,1004.846472
2022-08-14T03:39:41.000Z,1004.846472
2022-08-14T03:40:01.000Z,1004.74488
2022-08-14T03:40:31.000Z,1004.74488
2022-08-14T03:41:01.000Z,1004.6432880000001
2022-08-14T03:41:36.000Z,1004.6432880000001
2022-08-14T03:42:06.000Z,1004.6432880000001
2022-08-14T03:42:06.000Z,1004.6432880000001
2022-08-14T03:42:06.000Z,1004.6432880000001
2022-08-14T03:42:41.000Z,1004.6432880000001
2022-08-14T03:42:41.000Z,1004.6432880000001
2022-08-14T03:42:41.000Z,1004.6432880000001
2022-08-14T03:43:11.000Z,1004.541696
2022-08-14T03:43:11.000Z,1004.541696
2022-08-14T03:43:11.000Z,1004.541696
2022-08-14T03:43:41.000Z,1004.541696
2022-08-14T03:43:41.000Z,1004.541696
2022-08-14T03:43:41.000Z,1004.541696
2022-08-14T03:44:16.000Z,1004.74488
2022-08-14T03:44:16.000Z,1004.74488
2022-08-14T03:44:16.000Z,1004.74488
2022-08-14T03:44:46.000Z,1004.6432880000001
2022-08-14T03:44:46.000Z,1004.6432880000001
2022-08-14T03:45:19.000Z,1004.6432880000001
2022-08-14T03:45:44.000Z,1004.74488
2022-08-14T03:46:06.000Z,1004.74488
2022-08-14T03:46:41.000Z,1004.74488
2022-08-14T03:47:11.000Z,1004.6432880000001
2022-08-14T03:47:41.000Z,1004.6432880000001
2022-08-14T03:48:31.000Z,1004.541696
2022-08-14T03:49:01.000Z,1004.9142
2022-08-14T03:49:36.000Z,1004.9142
2022-08-14T03:50:06.000Z,1004.6432880000001
2022-08-14T03:50:41.000Z,1004.6432880000001
2022-08-14T03:51:11.000Z,1004.6432880000001
2022-08-14T03:51:41.000Z,1004.6432880000001
2022-08-14T03:52:16.000Z,1004.74488
2022-08-14T03:52:46.000Z,1004.74488
2022-08-14T03:53:19.000Z,1004.74488
2022-08-14T03:53:44.000Z,1004.846472
2022-08-14T03:54:06.000Z,1004.846472
2022-08-14T03:54:41.000Z,1004.846472
2022-08-14T03:55:11.000Z,1004.541696
2022-08-14T03:55:41.000Z,1004.541696
2022-08-14T03:56:16.000Z,1004.74488
2022-08-14T03:56:46.000Z,1004.541696
2022-08-14T03:57:19.000Z,1004.541696
2022-08-14T03:57:44.000Z,1004.6432880000001
2022-08-14T03:58:06.000Z,1004.6432880000001
2022-08-14T03:58:41.000Z,1004.6432880000001
2022-08-14T03:59:11.000Z,1004.846472
2022-08-14T03:59:41.000Z,1004.846472
2022-08-14T04:00:25.000Z,1004.541696
2022-08-14T04:00:55.000Z,1004.541696
2022-08-14T04:01:20.000Z,1004.541696
2022-08-14T04:01:45.000Z,1004.541696
2022-08-14T04:02:08.000Z,1004.541696
2022-08-14T04:02:36.000Z,1004.541696
2022-08-14T04:03:02.000Z,1004.541696
2022-08-14T04:03:26.000Z,1004.541696
2022-08-14T04:03:44.000Z,1004.6432880000001
2022-08-14T04:04:16.000Z,1004.6432880000001
2022-08-14T04:04:46.000Z,1004.541696
2022-08-14T04:05:19.000Z,1004.541696
2022-08-14T04:05:44.000Z,1004.74488
2022-08-14T04:06:06.000Z,1004.74488
2022-08-14T04:06:41.000Z,1004.74488
2022-08-14T04:07:11.000Z,1004.74488
2022-08-14T04:07:41.000Z,1004.74488
2022-08-14T04:08:16.000Z,1004.6432880000001
2022-08-14T04:08:46.000Z,1004.6432880000001
2022-08-14T04:09:20.000Z,1004.6432880000001
2022-08-14T04:09:45.000Z,1004.6432880000001
2022-08-14T04:10:09.000Z,1004.6432880000001
2022-08-14T04:10:36.000Z,1004.6432880000001
2022-08-14T04:11:02.000Z,1004.6432880000001
2022-08-14T04:11:27.000Z,1004.6432880000001
2022-08-14T04:11:50.000Z,1004.6432880000001
2022-08-14T04:12:15.000Z,1004.6432880000001
2022-08-14T04:12:46.000Z,1004.74488
2022-08-14T04:13:19.000Z,1004.74488
2022-08-14T04:13:44.000Z,1004.74488
2022-08-14T04:14:06.000Z,1004.74488
2022-08-14T04:14:41.000Z,1004.74488
2022-08-14T04:15:11.000Z,1004.6432880000001
2022-08-14T04:15:41.000Z,1004.6432880000001
2022-08-14T04:16:16.000Z,1004.6432880000001
2022-08-14T04:16:46.000Z,1004.6432880000001
2022-08-14T04:17:19.000Z,1004.6432880000001
2022-08-14T04:17:44.000Z,1004.541696
2022-08-14T04:18:06.000Z,1004.541696
2022-08-14T04:18:40.000Z,1004.541696
2022-08-14T04:19:11.000Z,1004.541696
2022-08-14T04:19:50.000Z,1004.74488
2022-08-14T04:20:15.000Z,1004.74488
2022-08-14T04:20:44.000Z,1004.6432880000001
2022-08-14T04:21:15.000Z,1004.6432880000001
2022-08-14T04:21:45.000Z,1004.6432880000001
2022-08-14T04:22:08.000Z,1004.6432880000001
2022-08-14T04:22:36.000Z,1004.6432880000001
2022-08-14T04:23:02.000Z,1004.6432880000001
2022-08-14T04:23:27.000Z,1004.6432880000001